< Typhoon 199516 1995 Season Typhoon 199518 >
Typhoon 199517 (VAL)
General InformationTrack Information on Google MapsDetailed Wind InformationList of All Images || Disaster Info.ResourceGoogle EarthGE AnimationAtom FeedGeoJSON
Detalied Best Track (Time Zone = UTC)
Year Month Day Hour Lat. Long. Pressure (hPa) Wind (kt) Class Image Chart
1995 10 8 06 17.5 147.5 1002 0 2 Image Chart
1995 10 8 12 18.0 148.0 1002 0 2 Image Chart
1995 10 8 18 18.5 147.5 1002 0 2 Image Chart
1995 10 9 00 19.5 146.5 1002 0 2 Image Chart
1995 10 9 06 19.8 146.0 1002 0 2 Image Chart
1995 10 9 12 20.2 145.3 1002 0 2 Image Chart
1995 10 9 18 20.7 144.8 1002 0 2 Image Chart
1995 10 10 00 21.6 144.2 1002 0 2 Image Chart
1995 10 10 06 22.5 143.4 1002 0 2 Image Chart
1995 10 10 12 23.8 141.6 1000 0 2 Image Chart
1995 10 10 18 24.7 140.3 1000 0 2 Image Chart
1995 10 11 00 25.5 139.0 998 35 3 Image Chart
1995 10 11 06 26.2 137.8 996 40 3 Image Chart
1995 10 11 12 26.5 137.5 996 40 3 Image Chart
1995 10 11 18 26.7 137.3 996 40 3 Image Chart
1995 10 12 00 26.7 137.0 996 40 3 Image Chart
1995 10 12 06 26.2 137.0 996 40 3 Image Chart
1995 10 12 12 25.2 137.3 996 40 3 Image Chart
1995 10 12 18 24.7 137.9 996 35 3 Image Chart
1995 10 13 00 24.7 138.3 996 35 3 Image Chart
1995 10 13 06 24.8 138.9 996 35 3 Image Chart
1995 10 13 12 24.7 139.2 998 0 2 Image Chart
1995 10 13 18 24.2 139.4 998 0 2 Image Chart
1995 10 14 00 23.3 139.0 1000 0 2 Image Chart
1995 10 14 06 22.5 138.3 1000 0 2 Image Chart
1995 10 14 12 22.1 137.6 1000 0 2 Image Chart
1995 10 14 18 22.0 137.0 1002 0 2 Image Chart
Japan Meteorological Agency Best Track Data | Correction Date : 1996-01-19
< Typhoon 199516 1995 Season Typhoon 199518 >

Help